Abington, CT (06230)

1:57 PM EDT on July 24, 2016 (GMT -0400)
Pomfret School | | Change Station

Elev 577 ft 41.89 °N, 71.97 °W | Updated 17 seconds ago

Partly Cloudy
Partly Cloudy
90.0 °F
Feels Like 96 °F
N
0.0
Wind Variable Wind from West
Gusts 1.0 mph

Today
High -- | Low -- °F
--% Chance of Precip.
Yesterday
High -- | Low -- °F
Precip. -- in
Pressure 29.97 in
Visibility 10.0 miles
Clouds Few 4600 ft
Heat Index 96 °F
Dew Point 70 °F
Humidity 53%
Rainfall 0.00 in
Snow Depth Not available.
5:34 AM 8:13 PM
Waning Gibbous, 74% visible
METAR KORH 241754Z 28011G14KT 10SM FEW046 28/14 A2998 RMK AO2 SLP148 T02780139 10278 20211 58002
Pressure 29.97 in
Visibility 10.0 miles
Clouds Few 4600 ft
Heat Index 96 °F
Dew Point 70 °F
Humidity 53%
Rainfall 0.00 in
Snow Depth Not available.
5:34 AM 8:13 PM
Waning Gibbous, 74% visible
METAR KORH 241754Z 28011G14KT 10SM FEW046 28/14 A2998 RMK AO2 SLP148 T02780139 10278 20211 58002

10-Day Weather Forecast

Almanac

Astronomy

Jul. 24, 2016 Rise Set
Actual Time
Civil Twilight
Nautical Twilight
Astronomical Twilight
Moon
Length of Visible Light
Length of Day
Tomorrow will be .
, % of the Moon is Illuminated

Today's Extremes

State Highs State Lows

Community

WunderPhotos

Upload Photos

1,927,134 photos uploaded!

WunderBlog® & News

Nearby

Air Quality

  Air Quality AQ Index Pollutant
Not available.

Snow Depth

Station Depth Elevation

Earthquake Activity

City Distance Mag. Time & Date
Minimum magnitude displayed is 2.5.

Coastal Water Temperatures

Place Temperature

Stations

Nearby Weather Stations

Station Location Temp. Windchill Dew Point Humidity Wind Precip. Elev Updated Type
                   

Watches & Warnings

There are currently no watches in effect.